Погода Хинотепена 2 недели

Карасо, Никарагуа

29 февраля-13 марта
  • 29февраля
    Сегодня
    +20°
    +31°
    Небольшая облачность
    ВремяПогодаТемператураВлажностьДавлениеВетер, м/сВероятность осадков
    00:00Практически безоблачно+22°C88 %714 мм7.6 м/с2 %
    03:00Практически безоблачно+21°C90 %713 мм7.9 м/с5 %
    06:00Пасмурно, сплошная облачность+21°C91 %714 мм7.8 м/с7 %
    09:00Небольшая облачность+25°C71 %716 мм9.4 м/с13 %
    12:00Практически безоблачно+30°C51 %715 мм8.5 м/с11 %
    15:00Небольшая облачность+30°C47 %713 мм8.4 м/с4 %
    18:00Ясно и безоблачно+27°C63 %713 мм5.8 м/с2 %
    21:00Ясно и безоблачно+24°C73 %714 мм6.8 м/с2 %
  • 01марта
    Пятница
    +20°
    +32°
    Небольшая облачность
    ВремяПогодаТемператураВлажностьДавлениеВетер, м/сВероятность осадков
    00:00Ясно и безоблачно+22°C86 %714 мм6.0 м/с2 %
    03:00Практически безоблачно+21°C93 %714 мм5.5 м/с12 %
    06:00Облачно с прояснениями+21°C93 %715 мм6.2 м/с18 %
    09:00Практически безоблачно+25°C71 %716 мм8.1 м/с14 %
    12:00Практически безоблачно+30°C50 %716 мм8.4 м/с9 %
    15:00Небольшая облачность+32°C50 %714 мм7.5 м/с8 %
    18:00Облачно с прояснениями+27°C66 %714 мм6.3 м/с4 %
    21:00Облачно с прояснениями+24°C75 %715 мм7.1 м/с2 %
  • 02марта
    Суббота
    +19°
    +32°
    Ясно и безоблачно
    ВремяПогодаТемператураВлажностьДавлениеВетер, м/сВероятность осадков
    00:00Облачно с прояснениями+22°C87 %715 мм6.4 м/с2 %
    03:00Облачно с прояснениями+21°C94 %714 мм6.1 м/с12 %
    06:00Практически безоблачно+21°C95 %715 мм6.1 м/с19 %
    09:00Небольшая облачность+26°C70 %717 мм8.3 м/с27 %
    12:00Ясно и безоблачно+30°C52 %716 мм7.1 м/с14 %
    15:00Ясно и безоблачно+31°C41 %714 мм6.5 м/с4 %
    18:00Ясно и безоблачно+28°C52 %714 мм5.0 м/с2 %
    21:00Практически безоблачно+24°C64 %715 мм6.6 м/с2 %
  • 03марта
    Воскресенье
    +19°
    +32°
    Ясно и безоблачно
    ВремяПогодаТемператураВлажностьДавлениеВетер, м/сВероятность осадков
    00:00Небольшая облачность+22°C85 %715 мм6.5 м/с2 %
    03:00Небольшая облачность+21°C90 %713 мм6.3 м/с4 %
    06:00Практически безоблачно+20°C93 %714 мм6.0 м/с5 %
    09:00Ясно и безоблачно+26°C65 %716 мм6.9 м/с9 %
    12:00Ясно и безоблачно+30°C47 %715 мм6.4 м/с2 %
    15:00Ясно и безоблачно+32°C40 %713 мм5.1 м/с2 %
    18:00Ясно и безоблачно+27°C55 %713 мм3.5 м/с2 %
    21:00Ясно и безоблачно+25°C71 %714 мм5.3 м/с2 %
  • 04марта
    Понедельник
    +20°
    +32°
    Ясно и безоблачно
    ВремяПогодаТемператураВлажностьДавлениеВетер, м/сВероятность осадков
    00:00Ясно и безоблачно+22°C89 %714 мм4.9 м/с2 %
    03:00Небольшая облачность+21°C95 %713 мм5.4 м/с16 %
    06:00Облачно с прояснениями+20°C95 %714 мм5.2 м/с16 %
    09:00Ясно и безоблачно+26°C63 %715 мм5.7 м/с17 %
    12:00Ясно и безоблачно+30°C46 %714 мм5.7 м/с3 %
    15:00Ясно и безоблачно+32°C42 %712 мм5.5 м/с3 %
    18:00Ясно и безоблачно+27°C55 %712 мм3.0 м/с2 %
    21:00Ясно и безоблачно+25°C64 %713 мм5.0 м/с2 %
Мы используем cookies
Соглашаюсь